Thurman, Ohio
Current Conditions -  °F | °C
As of 12:15 PM on Sunday 23 Nov 2014 (Local Time) from K3I2 Reporting Station
Scattered Clouds Scattered Clouds  
Wind Chill: 64°   Ceiling: Unl
Heat Index: 64°   Visibility: 10mi
Dew Point: 36°   Wind: 8mph
Humidity: 34%   Direction: 110°ESE
Pressure: 29.94"   Gusts: NA
Location:  38.9°N, 82.45°W
Report Text: K3I2 231715Z AUTO 11007KT 070V150 10SM SCT050 18/02 A2994 RMK AO2
Loading
Personal Weather Stations






























Interactive Weather Map New forecast layout! Learn more

10-Day Weather Forecast

Advertisements
Track Severe Weather on mobile